sensor_id;sensor_type;location;lat;lon;timestamp;P1;durP1;ratioP1;P2;durP2;ratioP2
11396;SDS011;5754;43.726;7.416;2024-01-06T00:01:02;4.47;;;2.70;;
11396;SDS011;5754;43.726;7.416;2024-01-06T00:03:37;3.90;;;2.30;;
11396;SDS011;5754;43.726;7.416;2024-01-06T00:06:12;6.37;;;2.40;;
11396;SDS011;5754;43.726;7.416;2024-01-06T00:08:49;3.73;;;2.40;;
11396;SDS011;5754;43.726;7.416;2024-01-06T00:11:28;3.40;;;2.20;;
11396;SDS011;5754;43.726;7.416;2024-01-06T00:14:05;5.13;;;2.20;;
11396;SDS011;5754;43.726;7.416;2024-01-06T00:16:39;5.70;;;2.17;;
11396;SDS011;5754;43.726;7.416;2024-01-06T00:19:14;3.73;;;2.40;;
11396;SDS011;5754;43.726;7.416;2024-01-06T00:21:52;5.27;;;2.20;;
11396;SDS011;5754;43.726;7.416;2024-01-06T00:24:28;4.73;;;2.17;;
11396;SDS011;5754;43.726;7.416;2024-01-06T00:27:03;4.03;;;2.43;;
11396;SDS011;5754;43.726;7.416;2024-01-06T00:29:37;4.93;;;2.40;;
11396;SDS011;5754;43.726;7.416;2024-01-06T00:32:13;5.73;;;1.93;;
11396;SDS011;5754;43.726;7.416;2024-01-06T00:34:47;6.70;;;2.53;;
11396;SDS011;5754;43.726;7.416;2024-01-06T00:37:22;5.27;;;1.90;;
11396;SDS011;5754;43.726;7.416;2024-01-06T00:39:57;7.77;;;2.23;;
11396;SDS011;5754;43.726;7.416;2024-01-06T00:42:32;5.17;;;1.97;;
11396;SDS011;5754;43.726;7.416;2024-01-06T00:45:07;4.80;;;2.20;;
11396;SDS011;5754;43.726;7.416;2024-01-06T00:47:42;5.20;;;2.13;;
11396;SDS011;5754;43.726;7.416;2024-01-06T00:50:18;5.17;;;1.80;;
11396;SDS011;5754;43.726;7.416;2024-01-06T00:52:53;5.90;;;2.30;;
11396;SDS011;5754;43.726;7.416;2024-01-06T00:55:28;5.87;;;2.10;;
11396;SDS011;5754;43.726;7.416;2024-01-06T00:58:03;4.23;;;1.90;;
11396;SDS011;5754;43.726;7.416;2024-01-06T01:00:39;6.77;;;2.27;;
11396;SDS011;5754;43.726;7.416;2024-01-06T01:03:15;4.50;;;1.97;;
11396;SDS011;5754;43.726;7.416;2024-01-06T01:05:50;3.57;;;1.90;;
11396;SDS011;5754;43.726;7.416;2024-01-06T01:08:26;3.80;;;2.00;;
11396;SDS011;5754;43.726;7.416;2024-01-06T01:11:03;6.53;;;2.47;;
11396;SDS011;5754;43.726;7.416;2024-01-06T01:13:38;2.90;;;2.03;;
11396;SDS011;5754;43.726;7.416;2024-01-06T01:16:13;5.10;;;2.13;;
11396;SDS011;5754;43.726;7.416;2024-01-06T01:18:56;4.90;;;1.97;;
11396;SDS011;5754;43.726;7.416;2024-01-06T01:21:31;7.83;;;2.27;;
11396;SDS011;5754;43.726;7.416;2024-01-06T01:24:09;5.03;;;2.30;;
11396;SDS011;5754;43.726;7.416;2024-01-06T01:26:43;5.13;;;2.03;;
11396;SDS011;5754;43.726;7.416;2024-01-06T01:29:17;3.27;;;1.80;;
11396;SDS011;5754;43.726;7.416;2024-01-06T01:31:54;7.97;;;2.00;;
11396;SDS011;5754;43.726;7.416;2024-01-06T01:34:31;4.07;;;2.17;;
11396;SDS011;5754;43.726;7.416;2024-01-06T01:37:06;3.07;;;1.93;;
11396;SDS011;5754;43.726;7.416;2024-01-06T01:39:41;2.20;;;1.50;;
11396;SDS011;5754;43.726;7.416;2024-01-06T01:42:17;2.57;;;1.67;;
11396;SDS011;5754;43.726;7.416;2024-01-06T01:44:53;2.23;;;1.60;;
11396;SDS011;5754;43.726;7.416;2024-01-06T01:47:27;3.80;;;1.70;;
11396;SDS011;5754;43.726;7.416;2024-01-06T01:50:07;3.67;;;1.73;;
11396;SDS011;5754;43.726;7.416;2024-01-06T01:52:41;5.60;;;2.17;;
11396;SDS011;5754;43.726;7.416;2024-01-06T01:55:16;3.90;;;1.70;;
11396;SDS011;5754;43.726;7.416;2024-01-06T01:57:53;3.10;;;1.30;;
11396;SDS011;5754;43.726;7.416;2024-01-06T02:00:28;2.13;;;1.60;;
11396;SDS011;5754;43.726;7.416;2024-01-06T02:03:06;2.13;;;1.63;;
11396;SDS011;5754;43.726;7.416;2024-01-06T02:05:45;3.43;;;1.50;;
11396;SDS011;5754;43.726;7.416;2024-01-06T02:08:20;3.07;;;1.70;;
11396;SDS011;5754;43.726;7.416;2024-01-06T02:11:01;4.97;;;1.80;;
11396;SDS011;5754;43.726;7.416;2024-01-06T02:13:36;2.67;;;1.60;;
11396;SDS011;5754;43.726;7.416;2024-01-06T02:16:12;1.87;;;1.43;;
11396;SDS011;5754;43.726;7.416;2024-01-06T02:18:46;4.57;;;1.80;;
11396;SDS011;5754;43.726;7.416;2024-01-06T02:21:25;3.37;;;1.70;;
11396;SDS011;5754;43.726;7.416;2024-01-06T02:24:01;3.10;;;1.50;;
11396;SDS011;5754;43.726;7.416;2024-01-06T02:26:37;2.03;;;1.80;;
11396;SDS011;5754;43.726;7.416;2024-01-06T02:29:13;3.17;;;1.80;;
11396;SDS011;5754;43.726;7.416;2024-01-06T02:31:49;3.00;;;1.70;;
11396;SDS011;5754;43.726;7.416;2024-01-06T02:34:23;2.17;;;1.60;;
11396;SDS011;5754;43.726;7.416;2024-01-06T02:37:01;1.80;;;1.53;;
11396;SDS011;5754;43.726;7.416;2024-01-06T02:39:38;3.17;;;1.80;;
11396;SDS011;5754;43.726;7.416;2024-01-06T02:42:14;1.83;;;1.67;;
11396;SDS011;5754;43.726;7.416;2024-01-06T02:44:49;3.73;;;1.93;;
11396;SDS011;5754;43.726;7.416;2024-01-06T02:47:25;4.03;;;1.93;;
11396;SDS011;5754;43.726;7.416;2024-01-06T02:49:59;4.77;;;1.70;;
11396;SDS011;5754;43.726;7.416;2024-01-06T02:52:36;3.70;;;1.73;;
11396;SDS011;5754;43.726;7.416;2024-01-06T02:55:12;2.53;;;1.60;;
11396;SDS011;5754;43.726;7.416;2024-01-06T02:57:47;3.23;;;1.60;;
11396;SDS011;5754;43.726;7.416;2024-01-06T03:00:23;4.23;;;1.60;;
11396;SDS011;5754;43.726;7.416;2024-01-06T03:02:59;4.27;;;1.70;;
11396;SDS011;5754;43.726;7.416;2024-01-06T03:05:38;2.27;;;1.67;;
11396;SDS011;5754;43.726;7.416;2024-01-06T03:08:12;2.10;;;1.47;;
11396;SDS011;5754;43.726;7.416;2024-01-06T03:10:50;4.20;;;1.73;;
11396;SDS011;5754;43.726;7.416;2024-01-06T03:13:25;2.40;;;1.80;;
11396;SDS011;5754;43.726;7.416;2024-01-06T03:16:05;5.07;;;1.93;;
11396;SDS011;5754;43.726;7.416;2024-01-06T03:18:39;3.70;;;1.80;;
11396;SDS011;5754;43.726;7.416;2024-01-06T03:21:18;1.97;;;1.80;;
11396;SDS011;5754;43.726;7.416;2024-01-06T03:23:53;7.07;;;1.97;;
11396;SDS011;5754;43.726;7.416;2024-01-06T03:26:29;2.87;;;1.73;;
11396;SDS011;5754;43.726;7.416;2024-01-06T03:29:05;3.23;;;1.80;;
11396;SDS011;5754;43.726;7.416;2024-01-06T03:31:44;3.73;;;2.07;;
11396;SDS011;5754;43.726;7.416;2024-01-06T03:34:19;5.50;;;1.83;;
11396;SDS011;5754;43.726;7.416;2024-01-06T03:36:57;4.83;;;2.00;;
11396;SDS011;5754;43.726;7.416;2024-01-06T03:39:31;3.03;;;1.80;;
11396;SDS011;5754;43.726;7.416;2024-01-06T03:42:06;4.50;;;1.73;;
11396;SDS011;5754;43.726;7.416;2024-01-06T03:44:43;5.00;;;1.90;;
11396;SDS011;5754;43.726;7.416;2024-01-06T03:47:18;2.90;;;1.83;;
11396;SDS011;5754;43.726;7.416;2024-01-06T03:49:55;4.53;;;1.93;;
11396;SDS011;5754;43.726;7.416;2024-01-06T03:52:30;3.57;;;1.70;;
11396;SDS011;5754;43.726;7.416;2024-01-06T03:55:05;5.03;;;2.20;;
11396;SDS011;5754;43.726;7.416;2024-01-06T03:57:42;4.47;;;1.90;;
11396;SDS011;5754;43.726;7.416;2024-01-06T04:00:17;3.43;;;1.90;;
11396;SDS011;5754;43.726;7.416;2024-01-06T04:02:53;3.70;;;1.80;;
11396;SDS011;5754;43.726;7.416;2024-01-06T04:05:28;4.17;;;1.80;;
11396;SDS011;5754;43.726;7.416;2024-01-06T04:08:04;3.13;;;1.90;;
11396;SDS011;5754;43.726;7.416;2024-01-06T04:10:39;7.17;;;2.20;;
11396;SDS011;5754;43.726;7.416;2024-01-06T04:13:15;6.63;;;2.30;;
11396;SDS011;5754;43.726;7.416;2024-01-06T04:15:50;3.53;;;2.00;;
11396;SDS011;5754;43.726;7.416;2024-01-06T04:18:28;5.30;;;2.10;;
11396;SDS011;5754;43.726;7.416;2024-01-06T04:21:03;6.93;;;2.23;;
11396;SDS011;5754;43.726;7.416;2024-01-06T04:23:39;4.07;;;2.00;;
11396;SDS011;5754;43.726;7.416;2024-01-06T04:26:20;4.50;;;1.87;;
11396;SDS011;5754;43.726;7.416;2024-01-06T04:28:55;4.40;;;1.83;;
11396;SDS011;5754;43.726;7.416;2024-01-06T04:31:33;2.83;;;1.83;;
11396;SDS011;5754;43.726;7.416;2024-01-06T04:34:08;2.37;;;1.97;;
11396;SDS011;5754;43.726;7.416;2024-01-06T04:36:44;5.10;;;2.10;;
11396;SDS011;5754;43.726;7.416;2024-01-06T04:39:19;4.27;;;2.07;;
11396;SDS011;5754;43.726;7.416;2024-01-06T04:41:54;2.83;;;1.47;;
11396;SDS011;5754;43.726;7.416;2024-01-06T04:44:30;3.30;;;1.77;;
11396;SDS011;5754;43.726;7.416;2024-01-06T04:47:07;4.47;;;1.73;;
11396;SDS011;5754;43.726;7.416;2024-01-06T04:49:44;4.23;;;1.90;;
11396;SDS011;5754;43.726;7.416;2024-01-06T04:52:19;3.17;;;2.10;;
11396;SDS011;5754;43.726;7.416;2024-01-06T04:54:55;2.90;;;1.90;;
11396;SDS011;5754;43.726;7.416;2024-01-06T04:57:31;3.03;;;1.87;;
11396;SDS011;5754;43.726;7.416;2024-01-06T05:00:10;2.67;;;1.77;;
11396;SDS011;5754;43.726;7.416;2024-01-06T05:02:46;3.63;;;2.00;;
11396;SDS011;5754;43.726;7.416;2024-01-06T05:05:21;2.33;;;1.47;;
11396;SDS011;5754;43.726;7.416;2024-01-06T05:07:57;4.27;;;1.90;;
11396;SDS011;5754;43.726;7.416;2024-01-06T05:10:33;3.40;;;1.60;;
11396;SDS011;5754;43.726;7.416;2024-01-06T05:13:08;3.90;;;1.80;;
11396;SDS011;5754;43.726;7.416;2024-01-06T05:15:43;2.10;;;1.87;;
11396;SDS011;5754;43.726;7.416;2024-01-06T05:18:19;1.90;;;1.70;;
11396;SDS011;5754;43.726;7.416;2024-01-06T05:20:58;1.63;;;1.40;;
11396;SDS011;5754;43.726;7.416;2024-01-06T05:23:33;3.53;;;1.80;;
11396;SDS011;5754;43.726;7.416;2024-01-06T05:26:11;3.40;;;1.87;;
11396;SDS011;5754;43.726;7.416;2024-01-06T05:28:48;3.63;;;1.70;;
11396;SDS011;5754;43.726;7.416;2024-01-06T05:31:23;4.83;;;1.90;;
11396;SDS011;5754;43.726;7.416;2024-01-06T05:33:58;2.87;;;1.80;;
11396;SDS011;5754;43.726;7.416;2024-01-06T05:36:34;2.80;;;2.10;;
11396;SDS011;5754;43.726;7.416;2024-01-06T05:39:10;3.87;;;1.97;;
11396;SDS011;5754;43.726;7.416;2024-01-06T05:41:45;3.30;;;2.10;;
11396;SDS011;5754;43.726;7.416;2024-01-06T05:44:22;2.30;;;2.07;;
11396;SDS011;5754;43.726;7.416;2024-01-06T05:46:58;4.30;;;2.30;;
11396;SDS011;5754;43.726;7.416;2024-01-06T05:49:38;3.17;;;2.17;;
11396;SDS011;5754;43.726;7.416;2024-01-06T05:52:18;2.30;;;2.10;;
11396;SDS011;5754;43.726;7.416;2024-01-06T05:54:54;2.43;;;1.90;;
11396;SDS011;5754;43.726;7.416;2024-01-06T05:57:32;2.20;;;1.73;;
11396;SDS011;5754;43.726;7.416;2024-01-06T06:00:10;2.83;;;1.70;;
11396;SDS011;5754;43.726;7.416;2024-01-06T06:02:48;7.57;;;2.43;;
11396;SDS011;5754;43.726;7.416;2024-01-06T06:05:25;7.37;;;2.73;;
11396;SDS011;5754;43.726;7.416;2024-01-06T06:08:03;3.97;;;1.90;;
11396;SDS011;5754;43.726;7.416;2024-01-06T06:10:42;5.13;;;2.10;;
11396;SDS011;5754;43.726;7.416;2024-01-06T06:13:39;2.07;;;1.60;;
11396;SDS011;5754;43.726;7.416;2024-01-06T06:16:14;2.93;;;1.70;;
11396;SDS011;5754;43.726;7.416;2024-01-06T06:18:50;3.13;;;1.80;;
11396;SDS011;5754;43.726;7.416;2024-01-06T06:24:09;3.37;;;2.03;;
11396;SDS011;5754;43.726;7.416;2024-01-06T06:26:45;3.60;;;1.87;;
11396;SDS011;5754;43.726;7.416;2024-01-06T06:29:22;4.37;;;1.83;;
11396;SDS011;5754;43.726;7.416;2024-01-06T06:31:57;3.53;;;2.23;;
11396;SDS011;5754;43.726;7.416;2024-01-06T06:34:37;3.63;;;1.77;;
11396;SDS011;5754;43.726;7.416;2024-01-06T06:37:13;3.63;;;2.10;;
11396;SDS011;5754;43.726;7.416;2024-01-06T06:39:49;6.43;;;2.07;;
11396;SDS011;5754;43.726;7.416;2024-01-06T06:42:24;6.00;;;2.00;;
11396;SDS011;5754;43.726;7.416;2024-01-06T06:45:05;3.30;;;1.90;;
11396;SDS011;5754;43.726;7.416;2024-01-06T06:47:41;4.70;;;1.97;;
11396;SDS011;5754;43.726;7.416;2024-01-06T06:50:16;5.30;;;2.07;;
11396;SDS011;5754;43.726;7.416;2024-01-06T06:52:54;3.87;;;1.90;;
11396;SDS011;5754;43.726;7.416;2024-01-06T06:55:28;2.93;;;1.90;;
11396;SDS011;5754;43.726;7.416;2024-01-06T06:58:07;4.23;;;1.90;;
11396;SDS011;5754;43.726;7.416;2024-01-06T07:00:42;1.97;;;1.73;;
11396;SDS011;5754;43.726;7.416;2024-01-06T07:03:20;3.33;;;1.90;;
11396;SDS011;5754;43.726;7.416;2024-01-06T07:05:55;7.00;;;2.50;;
11396;SDS011;5754;43.726;7.416;2024-01-06T07:08:32;3.60;;;2.77;;
11396;SDS011;5754;43.726;7.416;2024-01-06T07:11:07;3.90;;;2.93;;
11396;SDS011;5754;43.726;7.416;2024-01-06T07:13:45;6.30;;;3.17;;
11396;SDS011;5754;43.726;7.416;2024-01-06T07:16:20;5.17;;;2.73;;
11396;SDS011;5754;43.726;7.416;2024-01-06T07:18:54;4.80;;;2.30;;
11396;SDS011;5754;43.726;7.416;2024-01-06T07:21:30;2.97;;;2.00;;
11396;SDS011;5754;43.726;7.416;2024-01-06T07:24:06;3.63;;;2.17;;
11396;SDS011;5754;43.726;7.416;2024-01-06T07:26:41;4.43;;;2.17;;
11396;SDS011;5754;43.726;7.416;2024-01-06T07:29:16;4.73;;;2.30;;
11396;SDS011;5754;43.726;7.416;2024-01-06T07:31:52;5.63;;;2.10;;
11396;SDS011;5754;43.726;7.416;2024-01-06T07:34:27;5.37;;;1.97;;
11396;SDS011;5754;43.726;7.416;2024-01-06T07:37:04;4.67;;;2.20;;
11396;SDS011;5754;43.726;7.416;2024-01-06T07:39:40;6.53;;;2.17;;
11396;SDS011;5754;43.726;7.416;2024-01-06T07:42:16;3.93;;;3.30;;
11396;SDS011;5754;43.726;7.416;2024-01-06T07:44:50;7.53;;;5.07;;
11396;SDS011;5754;43.726;7.416;2024-01-06T07:47:26;6.30;;;2.90;;
11396;SDS011;5754;43.726;7.416;2024-01-06T07:50:01;7.90;;;3.27;;
11396;SDS011;5754;43.726;7.416;2024-01-06T07:52:40;5.10;;;3.07;;
11396;SDS011;5754;43.726;7.416;2024-01-06T07:55:14;3.77;;;2.40;;
11396;SDS011;5754;43.726;7.416;2024-01-06T07:57:50;4.80;;;2.03;;
11396;SDS011;5754;43.726;7.416;2024-01-06T08:00:24;7.20;;;2.43;;
11396;SDS011;5754;43.726;7.416;2024-01-06T08:02:59;8.10;;;2.43;;
11396;SDS011;5754;43.726;7.416;2024-01-06T08:05:35;3.43;;;2.50;;
11396;SDS011;5754;43.726;7.416;2024-01-06T08:08:11;3.90;;;3.10;;
11396;SDS011;5754;43.726;7.416;2024-01-06T08:10:48;3.93;;;3.10;;
11396;SDS011;5754;43.726;7.416;2024-01-06T08:13:23;4.23;;;3.93;;
11396;SDS011;5754;43.726;7.416;2024-01-06T08:15:58;7.90;;;7.50;;
11396;SDS011;5754;43.726;7.416;2024-01-06T08:18:33;11.83;;;11.13;;
11396;SDS011;5754;43.726;7.416;2024-01-06T08:21:08;10.90;;;10.20;;
11396;SDS011;5754;43.726;7.416;2024-01-06T08:23:42;12.67;;;11.87;;
11396;SDS011;5754;43.726;7.416;2024-01-06T08:26:17;16.73;;;15.93;;
11396;SDS011;5754;43.726;7.416;2024-01-06T08:28:51;13.87;;;13.07;;
11396;SDS011;5754;43.726;7.416;2024-01-06T08:31:26;16.97;;;16.17;;
11396;SDS011;5754;43.726;7.416;2024-01-06T08:34:01;20.93;;;19.83;;
11396;SDS011;5754;43.726;7.416;2024-01-06T08:36:36;27.43;;;26.03;;
11396;SDS011;5754;43.726;7.416;2024-01-06T08:39:13;34.30;;;32.50;;
11396;SDS011;5754;43.726;7.416;2024-01-06T08:41:47;43.60;;;41.20;;
11396;SDS011;5754;43.726;7.416;2024-01-06T08:44:22;45.50;;;43.17;;
11396;SDS011;5754;43.726;7.416;2024-01-06T08:46:59;52.40;;;50.10;;
11396;SDS011;5754;43.726;7.416;2024-01-06T08:49:34;54.97;;;52.30;;
11396;SDS011;5754;43.726;7.416;2024-01-06T08:52:09;60.20;;;57.17;;
11396;SDS011;5754;43.726;7.416;2024-01-06T08:54:44;66.33;;;63.27;;
11396;SDS011;5754;43.726;7.416;2024-01-06T08:57:19;72.75;;;69.55;;
11396;SDS011;5754;43.726;7.416;2024-01-06T08:59:55;76.90;;;73.40;;
11396;SDS011;5754;43.726;7.416;2024-01-06T09:02:29;80.15;;;76.45;;
11396;SDS011;5754;43.726;7.416;2024-01-06T09:05:04;84.40;;;80.40;;
11396;SDS011;5754;43.726;7.416;2024-01-06T09:07:39;85.53;;;81.87;;
11396;SDS011;5754;43.726;7.416;2024-01-06T09:10:14;86.85;;;83.12;;
11396;SDS011;5754;43.726;7.416;2024-01-06T09:12:50;89.20;;;85.20;;
11396;SDS011;5754;43.726;7.416;2024-01-06T09:15:24;91.22;;;87.43;;
11396;SDS011;5754;43.726;7.416;2024-01-06T09:18:00;91.65;;;87.85;;
11396;SDS011;5754;43.726;7.416;2024-01-06T09:20:37;92.85;;;88.78;;
11396;SDS011;5754;43.726;7.416;2024-01-06T09:23:12;94.28;;;90.22;;
11396;SDS011;5754;43.726;7.416;2024-01-06T09:25:46;95.43;;;91.07;;
11396;SDS011;5754;43.726;7.416;2024-01-06T09:28:23;94.95;;;90.87;;
11396;SDS011;5754;43.726;7.416;2024-01-06T09:30:57;94.20;;;90.22;;
11396;SDS011;5754;43.726;7.416;2024-01-06T09:33:32;92.03;;;88.12;;
11396;SDS011;5754;43.726;7.416;2024-01-06T09:36:08;95.20;;;91.30;;
11396;SDS011;5754;43.726;7.416;2024-01-06T09:38:45;94.07;;;90.07;;
11396;SDS011;5754;43.726;7.416;2024-01-06T09:41:20;95.90;;;91.90;;
11396;SDS011;5754;43.726;7.416;2024-01-06T09:43:56;94.70;;;90.60;;
11396;SDS011;5754;43.726;7.416;2024-01-06T09:46:32;97.72;;;93.53;;
11396;SDS011;5754;43.726;7.416;2024-01-06T09:49:09;98.85;;;94.72;;
11396;SDS011;5754;43.726;7.416;2024-01-06T09:51:48;97.68;;;93.47;;
11396;SDS011;5754;43.726;7.416;2024-01-06T09:54:24;99.50;;;95.30;;
11396;SDS011;5754;43.726;7.416;2024-01-06T09:57:01;102.45;;;98.10;;
11396;SDS011;5754;43.726;7.416;2024-01-06T09:59:36;103.62;;;99.43;;
11396;SDS011;5754;43.726;7.416;2024-01-06T10:02:15;101.60;;;97.50;;
11396;SDS011;5754;43.726;7.416;2024-01-06T10:04:50;102.82;;;98.62;;
11396;SDS011;5754;43.726;7.416;2024-01-06T10:07:28;103.55;;;99.25;;
11396;SDS011;5754;43.726;7.416;2024-01-06T10:10:03;104.68;;;100.28;;
11396;SDS011;5754;43.726;7.416;2024-01-06T10:12:38;104.53;;;100.07;;
11396;SDS011;5754;43.726;7.416;2024-01-06T10:15:13;104.38;;;99.78;;
11396;SDS011;5754;43.726;7.416;2024-01-06T10:17:47;104.53;;;100.30;;
11396;SDS011;5754;43.726;7.416;2024-01-06T10:20:27;102.70;;;98.20;;
11396;SDS011;5754;43.726;7.416;2024-01-06T10:23:05;102.55;;;98.35;;
11396;SDS011;5754;43.726;7.416;2024-01-06T10:25:41;101.15;;;96.90;;
11396;SDS011;5754;43.726;7.416;2024-01-06T10:28:16;100.55;;;96.45;;
11396;SDS011;5754;43.726;7.416;2024-01-06T10:30:52;100.18;;;95.97;;
11396;SDS011;5754;43.726;7.416;2024-01-06T10:33:27;101.18;;;97.03;;
11396;SDS011;5754;43.726;7.416;2024-01-06T10:36:02;100.95;;;96.85;;
11396;SDS011;5754;43.726;7.416;2024-01-06T10:38:39;99.62;;;95.53;;
11396;SDS011;5754;43.726;7.416;2024-01-06T10:41:16;104.25;;;99.95;;
11396;SDS011;5754;43.726;7.416;2024-01-06T10:43:51;101.07;;;96.97;;
11396;SDS011;5754;43.726;7.416;2024-01-06T10:46:26;104.90;;;100.65;;
11396;SDS011;5754;43.726;7.416;2024-01-06T10:49:03;103.45;;;99.25;;
11396;SDS011;5754;43.726;7.416;2024-01-06T10:51:42;107.05;;;102.65;;
11396;SDS011;5754;43.726;7.416;2024-01-06T10:54:18;103.72;;;99.53;;
11396;SDS011;5754;43.726;7.416;2024-01-06T10:56:54;106.90;;;102.40;;
11396;SDS011;5754;43.726;7.416;2024-01-06T10:59:31;104.32;;;100.12;;
11396;SDS011;5754;43.726;7.416;2024-01-06T11:02:07;108.12;;;103.72;;
11396;SDS011;5754;43.726;7.416;2024-01-06T11:04:45;108.03;;;103.53;;
11396;SDS011;5754;43.726;7.416;2024-01-06T11:07:22;108.78;;;104.18;;
11396;SDS011;5754;43.726;7.416;2024-01-06T11:09:58;109.55;;;105.05;;
11396;SDS011;5754;43.726;7.416;2024-01-06T11:12:36;108.15;;;103.65;;
11396;SDS011;5754;43.726;7.416;2024-01-06T11:15:34;105.20;;;100.90;;
11396;SDS011;5754;43.726;7.416;2024-01-06T11:18:33;110.40;;;105.82;;
11396;SDS011;5754;43.726;7.416;2024-01-06T11:21:15;108.55;;;104.05;;
11396;SDS011;5754;43.726;7.416;2024-01-06T11:24:09;111.18;;;106.65;;
11396;SDS011;5754;43.726;7.416;2024-01-06T11:26:50;111.03;;;106.50;;
11396;SDS011;5754;43.726;7.416;2024-01-06T11:29:26;109.75;;;105.15;;
11396;SDS011;5754;43.726;7.416;2024-01-06T11:32:18;109.53;;;105.12;;
11396;SDS011;5754;43.726;7.416;2024-01-06T11:34:54;109.28;;;104.82;;
11396;SDS011;5754;43.726;7.416;2024-01-06T11:37:54;107.85;;;103.55;;
11396;SDS011;5754;43.726;7.416;2024-01-06T11:40:32;107.93;;;103.55;;
11396;SDS011;5754;43.726;7.416;2024-01-06T11:43:10;107.25;;;102.95;;
11396;SDS011;5754;43.726;7.416;2024-01-06T11:45:45;106.90;;;102.55;;
11396;SDS011;5754;43.726;7.416;2024-01-06T11:48:20;107.80;;;103.40;;
11396;SDS011;5754;43.726;7.416;2024-01-06T11:50:59;103.95;;;99.72;;
11396;SDS011;5754;43.726;7.416;2024-01-06T11:53:35;103.55;;;99.15;;
11396;SDS011;5754;43.726;7.416;2024-01-06T11:56:10;102.07;;;97.78;;
11396;SDS011;5754;43.726;7.416;2024-01-06T11:58:45;101.68;;;97.53;;
11396;SDS011;5754;43.726;7.416;2024-01-06T12:01:20;102.38;;;97.88;;
11396;SDS011;5754;43.726;7.416;2024-01-06T12:03:58;101.12;;;96.95;;
11396;SDS011;5754;43.726;7.416;2024-01-06T12:06:34;100.30;;;96.12;;
11396;SDS011;5754;43.726;7.416;2024-01-06T12:09:12;98.40;;;94.10;;
11396;SDS011;5754;43.726;7.416;2024-01-06T12:12:00;96.85;;;92.85;;
11396;SDS011;5754;43.726;7.416;2024-01-06T12:14:36;96.67;;;92.57;;
11396;SDS011;5754;43.726;7.416;2024-01-06T12:17:12;97.73;;;93.73;;
11396;SDS011;5754;43.726;7.416;2024-01-06T12:19:47;97.57;;;93.47;;
11396;SDS011;5754;43.726;7.416;2024-01-06T12:22:23;97.47;;;93.27;;
11396;SDS011;5754;43.726;7.416;2024-01-06T12:24:58;95.90;;;91.70;;
11396;SDS011;5754;43.726;7.416;2024-01-06T12:27:33;95.77;;;91.87;;
11396;SDS011;5754;43.726;7.416;2024-01-06T12:30:11;93.27;;;89.17;;
11396;SDS011;5754;43.726;7.416;2024-01-06T12:32:49;95.73;;;91.67;;
11396;SDS011;5754;43.726;7.416;2024-01-06T12:35:29;92.87;;;88.97;;
11396;SDS011;5754;43.726;7.416;2024-01-06T12:38:04;94.30;;;90.17;;
11396;SDS011;5754;43.726;7.416;2024-01-06T12:40:42;93.13;;;89.10;;
11396;SDS011;5754;43.726;7.416;2024-01-06T12:43:17;92.80;;;88.97;;
11396;SDS011;5754;43.726;7.416;2024-01-06T12:45:53;93.50;;;89.60;;
11396;SDS011;5754;43.726;7.416;2024-01-06T12:48:34;96.07;;;92.00;;
11396;SDS011;5754;43.726;7.416;2024-01-06T12:51:10;91.23;;;87.40;;
11396;SDS011;5754;43.726;7.416;2024-01-06T12:53:45;94.40;;;90.40;;
11396;SDS011;5754;43.726;7.416;2024-01-06T12:56:19;92.67;;;88.87;;
11396;SDS011;5754;43.726;7.416;2024-01-06T12:58:54;90.30;;;86.33;;
11396;SDS011;5754;43.726;7.416;2024-01-06T13:01:32;89.77;;;85.80;;
11396;SDS011;5754;43.726;7.416;2024-01-06T13:04:07;93.20;;;89.20;;
11396;SDS011;5754;43.726;7.416;2024-01-06T13:06:45;92.60;;;88.47;;
11396;SDS011;5754;43.726;7.416;2024-01-06T13:09:23;89.43;;;85.53;;
11396;SDS011;5754;43.726;7.416;2024-01-06T13:12:00;90.20;;;86.03;;
11396;SDS011;5754;43.726;7.416;2024-01-06T13:14:34;89.20;;;85.40;;
11396;SDS011;5754;43.726;7.416;2024-01-06T13:17:10;89.33;;;85.30;;
11396;SDS011;5754;43.726;7.416;2024-01-06T13:19:46;91.03;;;87.23;;
11396;SDS011;5754;43.726;7.416;2024-01-06T13:22:22;91.07;;;87.20;;
11396;SDS011;5754;43.726;7.416;2024-01-06T13:24:57;88.13;;;84.33;;
11396;SDS011;5754;43.726;7.416;2024-01-06T13:27:32;88.37;;;84.57;;
11396;SDS011;5754;43.726;7.416;2024-01-06T13:30:08;89.53;;;85.73;;
11396;SDS011;5754;43.726;7.416;2024-01-06T13:32:47;87.13;;;83.30;;
11396;SDS011;5754;43.726;7.416;2024-01-06T13:35:25;87.30;;;83.40;;
11396;SDS011;5754;43.726;7.416;2024-01-06T13:38:04;81.40;;;77.90;;
11396;SDS011;5754;43.726;7.416;2024-01-06T13:40:39;81.13;;;77.47;;
11396;SDS011;5754;43.726;7.416;2024-01-06T13:43:13;81.80;;;78.30;;
11396;SDS011;5754;43.726;7.416;2024-01-06T13:45:50;83.17;;;79.47;;
11396;SDS011;5754;43.726;7.416;2024-01-06T13:48:26;80.73;;;77.10;;
11396;SDS011;5754;43.726;7.416;2024-01-06T13:51:04;81.20;;;77.40;;
11396;SDS011;5754;43.726;7.416;2024-01-06T13:53:39;78.53;;;74.80;;
11396;SDS011;5754;43.726;7.416;2024-01-06T13:56:16;75.83;;;72.40;;
11396;SDS011;5754;43.726;7.416;2024-01-06T13:58:52;75.80;;;72.60;;
11396;SDS011;5754;43.726;7.416;2024-01-06T14:01:27;76.10;;;72.83;;
11396;SDS011;5754;43.726;7.416;2024-01-06T14:04:03;71.47;;;68.37;;
11396;SDS011;5754;43.726;7.416;2024-01-06T14:06:39;72.00;;;68.67;;
11396;SDS011;5754;43.726;7.416;2024-01-06T14:09:17;67.60;;;64.57;;
11396;SDS011;5754;43.726;7.416;2024-01-06T14:11:53;66.70;;;63.80;;
11396;SDS011;5754;43.726;7.416;2024-01-06T14:14:31;69.60;;;66.50;;
11396;SDS011;5754;43.726;7.416;2024-01-06T14:17:08;68.73;;;65.63;;
11396;SDS011;5754;43.726;7.416;2024-01-06T14:19:43;71.07;;;67.80;;
11396;SDS011;5754;43.726;7.416;2024-01-06T14:22:21;65.83;;;62.80;;
11396;SDS011;5754;43.726;7.416;2024-01-06T14:24:56;66.30;;;63.30;;
11396;SDS011;5754;43.726;7.416;2024-01-06T14:27:31;67.93;;;64.70;;
11396;SDS011;5754;43.726;7.416;2024-01-06T14:30:07;69.33;;;66.23;;
11396;SDS011;5754;43.726;7.416;2024-01-06T14:32:43;67.20;;;64.27;;
11396;SDS011;5754;43.726;7.416;2024-01-06T14:35:18;68.40;;;65.30;;
11396;SDS011;5754;43.726;7.416;2024-01-06T14:37:53;65.67;;;62.63;;
11396;SDS011;5754;43.726;7.416;2024-01-06T14:40:28;66.33;;;63.17;;
11396;SDS011;5754;43.726;7.416;2024-01-06T14:43:04;65.63;;;62.63;;
11396;SDS011;5754;43.726;7.416;2024-01-06T14:45:39;62.80;;;60.00;;
11396;SDS011;5754;43.726;7.416;2024-01-06T14:48:14;62.60;;;59.40;;
11396;SDS011;5754;43.726;7.416;2024-01-06T14:50:48;62.83;;;59.80;;
11396;SDS011;5754;43.726;7.416;2024-01-06T14:53:25;62.07;;;59.37;;
11396;SDS011;5754;43.726;7.416;2024-01-06T14:56:00;61.67;;;58.87;;
11396;SDS011;5754;43.726;7.416;2024-01-06T14:58:37;59.03;;;56.50;;
11396;SDS011;5754;43.726;7.416;2024-01-06T15:01:12;60.50;;;57.90;;
11396;SDS011;5754;43.726;7.416;2024-01-06T15:03:47;58.70;;;56.00;;
11396;SDS011;5754;43.726;7.416;2024-01-06T15:06:23;58.50;;;56.00;;
11396;SDS011;5754;43.726;7.416;2024-01-06T15:08:58;58.33;;;55.53;;
11396;SDS011;5754;43.726;7.416;2024-01-06T15:11:34;57.80;;;55.00;;
11396;SDS011;5754;43.726;7.416;2024-01-06T15:14:09;57.23;;;54.43;;
11396;SDS011;5754;43.726;7.416;2024-01-06T15:16:44;56.37;;;53.67;;
11396;SDS011;5754;43.726;7.416;2024-01-06T15:19:18;54.73;;;52.33;;
11396;SDS011;5754;43.726;7.416;2024-01-06T15:21:54;55.67;;;53.07;;
11396;SDS011;5754;43.726;7.416;2024-01-06T15:24:29;50.33;;;48.03;;
11396;SDS011;5754;43.726;7.416;2024-01-06T15:27:05;50.40;;;48.20;;
11396;SDS011;5754;43.726;7.416;2024-01-06T15:29:40;50.87;;;48.57;;
11396;SDS011;5754;43.726;7.416;2024-01-06T15:32:15;50.17;;;47.57;;
11396;SDS011;5754;43.726;7.416;2024-01-06T15:34:50;49.80;;;47.40;;
11396;SDS011;5754;43.726;7.416;2024-01-06T15:37:24;47.00;;;44.80;;
11396;SDS011;5754;43.726;7.416;2024-01-06T15:40:00;45.53;;;43.10;;
11396;SDS011;5754;43.726;7.416;2024-01-06T15:42:35;45.80;;;43.20;;